Eagle, South Dakota
Current Conditions -  °F | °C
As of 10:55 AM on Monday 22 Dec 2014 (Local Time) from K9V9 Reporting Station
Drizzle Drizzle  
Wind Chill: 27°   Ceiling: 600
Heat Index: 35°   Visibility: 5mi
Dew Point: 34°   Wind: 12mph
Humidity: 97%   Direction: 300°WNW
Pressure: 29.47"   Gusts: NA
Location:  43.4255°N, 98.9806°W
Report Text: K9V9 221655Z AUTO 30010KT 5SM -DZ BKN006 OVC011 02/01 A2947 RMK AO2 T00170012
Loading
Personal Weather Stations






























Interactive Weather Map New forecast layout! Learn more

10-Day Weather Forecast

Advertisements
Track Severe Weather on mobile